Time;durP1;ratioP1;P1;durP2;ratioP2;P2;SDS_P1;SDS_P2;PMS_P1;PMS_P2;Temp;Humidity;BMP_temperature;BMP_pressure;BME280_temperature;BME280_humidity;BME280_pressure;Samples;Min_cycle;Max_cycle;Signal;HPM_P1;HPM_P2
2023/09/15 00:00:34;;;;;;;35.70;18.02;;;;;;;13.90;100.00;102059.84;6066204;19;20289;-75
2023/09/15 00:02:40;;;;;;;35.22;18.70;;;;;;;13.89;100.00;102058.97;6065762;19;20344;-76
2023/09/15 00:04:48;;;;;;;34.10;17.75;;;;;;;13.85;100.00;102060.03;6073587;19;20029;-76
2023/09/15 00:06:55;;;;;;;31.33;16.30;;;;;;;13.81;100.00;102055.75;6068887;19;20318;-75
2023/09/15 00:09:01;;;;;;;31.85;16.85;;;;;;;13.80;100.00;102060.16;6072153;19;20019;-75
2023/09/15 00:11:08;;;;;;;31.48;16.38;;;;;;;13.78;100.00;102063.78;6074507;19;20018;-74
2023/09/15 00:13:14;;;;;;;32.97;17.75;;;;;;;13.77;100.00;102055.00;6070684;19;20082;-74
2023/09/15 00:15:19;;;;;;;34.08;18.80;;;;;;;13.75;100.00;102053.31;6066664;19;20014;-75
2023/09/15 00:17:25;;;;;;;33.95;16.33;;;;;;;13.72;100.00;102053.44;6063177;19;20302;-75
2023/09/15 00:19:32;;;;;;;39.05;18.38;;;;;;;13.72;100.00;102058.72;6060344;19;20014;-76
2023/09/15 00:21:38;;;;;;;36.15;16.80;;;;;;;13.70;100.00;102064.03;6059705;19;20295;-76
2023/09/15 00:23:43;;;;;;;37.28;18.67;;;;;;;13.67;100.00;102056.22;6055704;19;20473;-74
2023/09/15 00:25:48;;;;;;;37.45;17.35;;;;;;;13.67;100.00;102056.22;6064527;19;20573;-75
2023/09/15 00:27:55;;;;;;;34.45;18.40;;;;;;;13.67;100.00;102055.38;6061672;19;20035;-75
2023/09/15 00:30:00;;;;;;;39.35;18.50;;;;;;;13.65;100.00;102057.19;6061615;19;20379;-75
2023/09/15 00:32:07;;;;;;;40.28;18.98;;;;;;;13.69;100.00;102053.50;6065015;19;20266;-77
2023/09/15 00:34:15;;;;;;;39.22;19.25;;;;;;;13.69;100.00;102048.22;6063909;19;20527;-75
2023/09/15 00:36:20;;;;;;;40.08;19.63;;;;;;;13.72;100.00;102059.56;6062049;19;20509;-75
2023/09/15 00:38:28;;;;;;;36.60;18.23;;;;;;;13.74;100.00;102055.06;6071393;19;20565;-76
2023/09/15 00:40:34;;;;;;;41.22;20.65;;;;;;;13.75;100.00;102054.19;6057551;19;20218;-77
2023/09/15 00:42:44;;;;;;;38.75;19.20;;;;;;;13.74;100.00;102049.78;6064904;19;20018;-76
2023/09/15 00:44:49;;;;;;;42.97;20.45;;;;;;;13.69;100.00;102059.69;6063071;19;20444;-76
2023/09/15 00:46:59;;;;;;;46.55;20.70;;;;;;;13.65;100.00;102052.75;6067372;19;20493;-75
2023/09/15 00:49:05;;;;;;;48.13;22.20;;;;;;;13.63;100.00;102046.66;6063106;19;20467;-75
2023/09/15 00:51:14;;;;;;;46.15;21.33;;;;;;;13.66;100.00;102050.97;6066347;19;20015;-75
2023/09/15 00:53:22;;;;;;;48.00;21.20;;;;;;;13.67;100.00;102042.16;6068121;19;20010;-75
2023/09/15 00:55:29;;;;;;;46.13;22.58;;;;;;;13.66;100.00;102043.06;6065072;19;20040;-75
2023/09/15 00:57:32;;;;;;;46.65;20.63;;;;;;;13.69;100.00;102043.84;6073932;19;20003;-75
2023/09/15 00:59:40;;;;;;;48.13;22.60;;;;;;;13.69;100.00;102040.31;6073418;19;20531;-75
2023/09/15 01:01:47;;;;;;;44.95;22.45;;;;;;;13.70;100.00;102044.69;6072478;19;20082;-74
2023/09/15 01:03:55;;;;;;;48.33;23.58;;;;;;;13.63;100.00;102044.03;6069985;19;20637;-75
2023/09/15 01:06:26;;;;;;;54.30;24.40;;;;;;;13.59;100.00;102045.06;6063027;19;20018;-76
2023/09/15 01:08:35;;;;;;;51.13;23.15;;;;;;;13.59;100.00;102042.41;6075703;19;20018;-76
2023/09/15 01:10:41;;;;;;;43.10;22.65;;;;;;;13.59;100.00;102040.63;6067817;19;20520;-75
2023/09/15 01:12:46;;;;;;;57.42;24.27;;;;;;;13.57;100.00;102039.81;6043584;19;20035;-75
2023/09/15 01:14:51;;;;;;;57.25;25.77;;;;;;;13.57;100.00;102033.69;6064921;19;20040;-75
2023/09/15 01:17:04;;;;;;;54.70;24.90;;;;;;;13.56;100.00;102037.22;6072425;19;20407;-77
2023/09/15 01:19:37;;;;;;;58.15;24.63;;;;;;;13.52;100.00;102041.75;6046629;19;20035;-75
2023/09/15 01:22:15;;;;;;;51.15;24.67;;;;;;;13.54;100.00;102032.00;6058608;19;20394;-75
2023/09/15 01:24:43;;;;;;;55.85;27.42;;;;;;;13.51;100.00;102033.91;6057134;19;20177;-74
2023/09/15 01:27:15;;;;;;;51.83;23.75;;;;;;;13.46;100.00;102026.13;6056555;19;20018;-75
2023/09/15 01:29:46;;;;;;;50.35;23.40;;;;;;;13.45;100.00;102019.09;6060299;19;20043;-75
2023/09/15 01:31:52;;;;;;;50.08;25.08;;;;;;;13.44;100.00;102030.56;6058091;19;20221;-77
2023/09/15 01:34:00;;;;;;;63.20;24.60;;;;;;;13.42;100.00;102029.75;6061684;19;20359;-74
2023/09/15 01:36:06;;;;;;;64.07;27.70;;;;;;;13.44;100.00;102021.81;6057891;19;20151;-75
2023/09/15 01:38:14;;;;;;;54.17;24.73;;;;;;;13.42;100.00;102028.91;6061891;19;20341;-76
2023/09/15 01:40:21;;;;;;;59.05;25.42;;;;;;;13.36;100.00;102019.41;6068839;19;20028;-76
2023/09/15 01:42:30;;;;;;;65.63;26.45;;;;;;;13.35;100.00;102020.34;6062441;19;20697;-75
2023/09/15 01:44:35;;;;;;;60.88;26.20;;;;;;;13.31;100.00;102018.69;6041018;19;20030;-75
2023/09/15 01:46:46;;;;;;;64.15;27.75;;;;;;;13.30;100.00;102017.00;6065256;19;20426;-75
2023/09/15 01:48:51;;;;;;;58.72;25.08;;;;;;;13.28;100.00;102024.09;6066849;19;20229;-75
2023/09/15 01:50:59;;;;;;;60.38;26.38;;;;;;;13.26;100.00;102016.22;6046104;19;20466;-77
2023/09/15 01:53:05;;;;;;;65.15;27.60;;;;;;;13.25;100.00;102017.09;6047134;19;20463;-76
2023/09/15 01:55:15;;;;;;;69.70;29.42;;;;;;;13.21;100.00;102009.31;6067322;19;20274;-77
2023/09/15 01:57:22;;;;;;;62.28;27.15;;;;;;;13.23;100.00;102012.78;6059631;19;20345;-75
2023/09/15 01:59:32;;;;;;;68.80;28.30;;;;;;;13.23;100.00;102013.63;6055779;19;20011;-75
2023/09/15 02:01:37;;;;;;;64.72;28.98;;;;;;;13.18;100.00;102015.56;6067104;19;20014;-75
2023/09/15 02:03:48;;;;;;;68.65;27.40;;;;;;;13.16;100.00;102007.72;6068186;19;20456;-75
2023/09/15 02:06:00;;;;;;;58.63;25.17;;;;;;;13.16;100.00;101999.78;6060751;19;20362;-76
2023/09/15 02:08:07;;;;;;;65.10;27.67;;;;;;;13.17;100.00;102009.44;6049888;19;20327;-75
2023/09/15 02:10:13;;;;;;;66.55;28.90;;;;;;;13.13;100.00;102006.94;6034671;19;20006;-75
2023/09/15 02:12:20;;;;;;;65.47;28.08;;;;;;;13.13;100.00;102005.16;6055951;19;20010;-76
2023/09/15 02:14:29;;;;;;;62.85;28.65;;;;;;;13.11;100.00;102004.34;6055536;19;19998;-74
2023/09/15 02:16:35;;;;;;;68.65;29.67;;;;;;;13.08;100.00;101999.16;6064562;19;20294;-77
2023/09/15 02:18:48;;;;;;;66.28;30.98;;;;;;;13.08;100.00;102007.06;6057643;19;20493;-75
2023/09/15 02:21:07;;;;;;;66.70;28.25;;;;;;;13.07;100.00;102002.72;6054987;19;20363;-75
2023/09/15 02:23:12;;;;;;;67.03;28.60;;;;;;;13.08;100.00;101999.16;6059818;19;20012;-75
2023/09/15 02:25:19;;;;;;;70.13;29.67;;;;;;;13.06;100.00;102000.13;6061616;19;20019;-75
2023/09/15 02:27:25;;;;;;;69.85;28.63;;;;;;;13.05;100.00;102001.03;6052939;19;20029;-75
2023/09/15 02:29:30;;;;;;;71.60;31.02;;;;;;;13.04;100.00;101997.53;6066917;19;20285;-75
2023/09/15 02:31:35;;;;;;;67.90;29.48;;;;;;;13.01;100.00;101984.47;6060168;19;20746;-75
2023/09/15 02:33:45;;;;;;;74.15;30.73;;;;;;;13.02;100.00;101998.50;6047145;19;20003;-75
2023/09/15 02:35:51;;;;;;;74.50;29.83;;;;;;;13.02;100.00;101993.22;6072795;19;20015;-75
2023/09/15 02:37:59;;;;;;;72.45;29.52;;;;;;;13.01;100.00;101991.50;6048330;19;20039;-75
2023/09/15 02:40:14;;;;;;;79.50;32.13;;;;;;;12.97;100.00;101996.00;6073649;19;20520;-75
2023/09/15 02:42:20;;;;;;;63.90;29.95;;;;;;;12.98;100.00;101992.47;6067586;19;20007;-76
2023/09/15 02:44:25;;;;;;;74.63;29.60;;;;;;;12.98;100.00;101989.84;6074499;19;20122;-77
2023/09/15 02:46:28;;;;;;;78.07;30.52;;;;;;;13.02;100.00;101993.22;6066318;19;20007;-77
2023/09/15 02:48:45;;;;;;;86.88;32.78;;;;;;;12.91;100.00;101991.78;6076777;19;20014;-77
2023/09/15 02:50:58;;;;;;;73.20;29.90;;;;;;;12.93;100.00;101992.63;6031307;19;20240;-76
2023/09/15 02:53:09;;;;;;;77.35;30.13;;;;;;;12.94;100.00;101996.09;6055332;19;20785;-75
2023/09/15 02:55:17;;;;;;;82.88;33.33;;;;;;;12.90;100.00;101986.56;6076202;19;20023;-77
2023/09/15 02:57:25;;;;;;;76.03;31.55;;;;;;;12.91;100.00;101991.78;6066636;19;20010;-77
2023/09/15 02:59:28;;;;;;;87.43;32.05;;;;;;;12.88;100.00;101985.75;6068118;19;20010;-75
2023/09/15 03:01:37;;;;;;;92.47;35.53;;;;;;;12.93;100.00;101991.75;6076450;19;20007;-77
2023/09/15 03:03:43;;;;;;;87.18;34.70;;;;;;;12.89;100.00;101988.34;6042945;19;20607;-74
2023/09/15 03:05:50;;;;;;;83.38;33.40;;;;;;;12.92;100.00;101985.59;6064795;19;20396;-76
2023/09/15 03:07:59;;;;;;;78.13;32.53;;;;;;;12.94;100.00;101982.91;6061193;19;20308;-74
2023/09/15 03:10:05;;;;;;;73.80;33.58;;;;;;;12.92;100.00;101976.81;6062564;19;20215;-74
2023/09/15 03:12:10;;;;;;;86.03;34.45;;;;;;;12.93;100.00;101984.69;6060946;19;19999;-75
2023/09/15 03:14:18;;;;;;;90.53;33.83;;;;;;;12.92;100.00;101979.47;6067645;19;20011;-76
2023/09/15 03:16:25;;;;;;;84.15;32.55;;;;;;;12.88;100.00;101986.63;6035490;19;20524;-74
2023/09/15 03:18:28;;;;;;;89.20;34.00;;;;;;;12.86;100.00;101977.03;6059397;19;20399;-74
2023/09/15 03:20:39;;;;;;;88.72;34.13;;;;;;;12.83;100.00;101970.06;6066822;19;20288;-74
2023/09/15 03:22:48;;;;;;;82.88;33.72;;;;;;;12.83;100.00;101978.00;6064172;19;20279;-74
2023/09/15 03:24:56;;;;;;;88.10;34.92;;;;;;;12.86;100.00;101969.13;6065306;19;20027;-74
2023/09/15 03:27:04;;;;;;;87.57;35.00;;;;;;;12.89;100.00;101966.38;6065474;19;20530;-74
2023/09/15 03:29:10;;;;;;;94.70;33.88;;;;;;;12.90;100.00;101970.72;6060846;19;20019;-74
2023/09/15 03:31:16;;;;;;;98.47;37.13;;;;;;;12.92;100.00;101963.63;6061543;19;20256;-74
2023/09/15 03:33:23;;;;;;;95.25;37.95;;;;;;;12.87;100.00;101968.19;6069113;19;20015;-75
2023/09/15 03:35:32;;;;;;;90.43;34.35;;;;;;;12.88;100.00;101965.50;6059744;19;20014;-74
2023/09/15 03:37:38;;;;;;;104.07;36.03;;;;;;;12.86;100.00;101966.47;6069611;19;20018;-74
2023/09/15 03:39:43;;;;;;;95.63;33.08;;;;;;;12.85;100.00;101967.38;6071271;19;20010;-75
2023/09/15 03:41:48;;;;;;;94.90;34.42;;;;;;;12.82;100.00;101968.38;6069257;19;20014;-74
2023/09/15 03:43:59;;;;;;;98.55;36.92;;;;;;;12.84;100.00;101963.00;6068857;19;20007;-74
2023/09/15 03:46:07;;;;;;;90.53;36.88;;;;;;;12.79;100.00;101959.66;6072042;19;20018;-74
2023/09/15 03:48:14;;;;;;;93.25;36.58;;;;;;;12.81;100.00;101963.97;6072613;19;20447;-73
2023/09/15 03:50:21;;;;;;;95.95;34.92;;;;;;;12.81;100.00;101957.84;6065490;19;20111;-74
2023/09/15 03:52:26;;;;;;;91.13;34.33;;;;;;;12.78;100.00;101960.59;6060479;19;20495;-76
2023/09/15 03:54:32;;;;;;;90.22;32.88;;;;;;;12.80;100.00;101964.91;6066759;19;20487;-75
2023/09/15 03:56:37;;;;;;;83.78;34.28;;;;;;;12.78;100.00;101950.88;6066198;19;20022;-74
2023/09/15 03:58:42;;;;;;;87.70;35.38;;;;;;;12.79;100.00;101951.75;6069039;19;20362;-74
2023/09/15 04:00:50;;;;;;;95.43;35.95;;;;;;;12.69;100.00;101952.06;6068153;19;20048;-74
2023/09/15 04:02:55;;;;;;;88.07;34.20;;;;;;;12.67;100.00;101956.50;6061891;19;20019;-73
2023/09/15 04:05:01;;;;;;;88.70;33.60;;;;;;;12.61;100.00;101951.44;6064250;19;20407;-74
2023/09/15 04:07:07;;;;;;;96.47;34.03;;;;;;;12.69;100.00;101952.06;6064310;19;20032;-74
2023/09/15 04:09:13;;;;;;;98.57;34.88;;;;;;;12.66;100.00;101949.47;6062189;19;20381;-75
2023/09/15 04:11:18;;;;;;;85.78;32.67;;;;;;;12.67;100.00;101955.66;6060168;19;20015;-73
2023/09/15 04:13:24;;;;;;;81.90;31.80;;;;;;;12.66;100.00;101952.13;6067064;19;20007;-74
2023/09/15 04:15:30;;;;;;;93.47;32.72;;;;;;;12.61;100.00;101950.53;6051775;19;20106;-74
2023/09/15 04:17:38;;;;;;;77.65;32.55;;;;;;;12.60;100.00;101954.97;6063958;19;20215;-74
2023/09/15 04:19:45;;;;;;;84.40;32.45;;;;;;;12.52;100.00;101952.56;6064629;19;20402;-75
2023/09/15 04:21:50;;;;;;;83.88;32.88;;;;;;;12.51;100.00;101948.22;6070734;19;20039;-75
2023/09/15 04:23:58;;;;;;;80.65;31.92;;;;;;;12.52;100.00;101944.66;6068356;19;20514;-74
2023/09/15 04:26:04;;;;;;;82.20;32.40;;;;;;;12.51;100.00;101947.34;6064853;19;20038;-74
2023/09/15 04:28:09;;;;;;;88.72;32.95;;;;;;;12.50;100.00;101950.88;6063620;19;20376;-74
2023/09/15 04:30:15;;;;;;;95.75;34.28;;;;;;;12.52;100.00;101946.44;6063897;19;20191;-75
2023/09/15 04:32:18;;;;;;;85.32;33.92;;;;;;;12.52;100.00;101946.44;6066702;19;20018;-75
2023/09/15 04:34:29;;;;;;;80.80;32.08;;;;;;;12.54;100.00;101944.63;6066424;19;20013;-75
2023/09/15 04:36:34;;;;;;;73.65;29.33;;;;;;;12.50;100.00;101938.56;6071322;19;20006;-74
2023/09/15 04:38:44;;;;;;;80.95;32.20;;;;;;;12.51;100.00;101935.03;6073011;19;20185;-76
2023/09/15 04:40:50;;;;;;;69.68;30.20;;;;;;;12.56;100.00;101940.16;6076210;19;20090;-75
2023/09/15 04:42:59;;;;;;;67.40;31.60;;;;;;;12.51;100.00;101934.16;6070050;19;20287;-74
2023/09/15 04:45:04;;;;;;;68.53;31.60;;;;;;;12.52;100.00;101938.53;6072592;19;20017;-73
2023/09/15 04:47:11;;;;;;;66.65;29.17;;;;;;;12.49;100.00;101938.63;6070565;19;20010;-75
2023/09/15 04:49:18;;;;;;;76.05;29.70;;;;;;;12.49;100.00;101936.84;6071019;19;20486;-75
2023/09/15 04:51:26;;;;;;;68.43;29.30;;;;;;;12.51;100.00;101937.66;6071104;19;20555;-75
2023/09/15 04:53:32;;;;;;;68.40;30.58;;;;;;;12.44;100.00;101938.75;6068802;19;20281;-75
2023/09/15 04:55:37;;;;;;;63.33;27.30;;;;;;;12.46;100.00;101936.09;6070777;19;20230;-74
2023/09/15 04:58:44;;;;;;;;;;;;;;;;;;;;;
2023/09/15 05:01:17;;;;;;;60.60;25.90;;;;;;;12.41;100.00;101951.19;6047815;19;20400;-75
2023/09/15 05:03:25;;;;;;;59.92;27.10;;;;;;;12.37;100.00;101946.91;6072047;19;20002;-74
2023/09/15 05:05:31;;;;;;;57.85;27.05;;;;;;;12.35;100.00;101949.59;6061688;19;20024;-74
2023/09/15 05:07:42;;;;;;;66.85;27.50;;;;;;;12.32;100.00;101949.66;6063880;19;20291;-74
2023/09/15 05:09:48;;;;;;;51.92;25.10;;;;;;;12.31;100.00;101955.84;6070405;19;20707;-74
2023/09/15 05:12:02;;;;;;;56.47;27.73;;;;;;;12.27;100.00;101954.22;6057963;19;20216;-73
2023/09/15 05:14:07;;;;;;;46.97;23.70;;;;;;;12.23;100.00;101958.72;6043086;19;20435;-74
2023/09/15 05:16:17;;;;;;;50.80;25.45;;;;;;;12.26;100.00;101957.75;6059074;19;20022;-74
2023/09/15 05:18:22;;;;;;;51.28;23.35;;;;;;;12.29;100.00;101961.16;6076548;19;20296;-73
2023/09/15 05:20:27;;;;;;;52.85;25.45;;;;;;;12.26;100.00;101955.97;6068143;19;20130;-73
2023/09/15 05:22:46;;;;;;;50.10;25.58;;;;;;;12.24;100.00;101959.56;6057057;19;20017;-74
2023/09/15 05:24:52;;;;;;;53.75;23.77;;;;;;;12.27;100.00;101962.16;6050469;19;20023;-73
2023/09/15 05:27:01;;;;;;;46.70;23.85;;;;;;;12.28;100.00;101966.50;6064205;19;20007;-75
2023/09/15 05:29:07;;;;;;;51.13;24.30;;;;;;;12.27;100.00;101962.16;6057238;19;20007;-74
2023/09/15 05:31:13;;;;;;;49.30;24.42;;;;;;;12.33;100.00;101961.09;6062717;19;20524;-75
2023/09/15 05:33:20;;;;;;;46.85;24.08;;;;;;;12.30;100.00;101965.53;6061931;19;20018;-75
2023/09/15 05:35:28;;;;;;;47.75;23.33;;;;;;;12.30;100.00;101968.19;6049518;19;20630;-76
2023/09/15 05:37:39;;;;;;;44.05;22.90;;;;;;;12.34;100.00;101958.38;6062048;19;20358;-75
2023/09/15 05:39:54;;;;;;;46.28;23.55;;;;;;;12.36;100.00;101966.28;6059931;19;20028;-73
2023/09/15 05:42:01;;;;;;;45.83;23.52;;;;;;;12.34;100.00;101952.25;6064387;19;20282;-76
2023/09/15 05:44:32;;;;;;;48.63;23.80;;;;;;;12.30;100.00;101957.63;6063575;19;20010;-76
2023/09/15 05:46:42;;;;;;;40.07;22.10;;;;;;;12.39;100.00;101956.47;6043896;19;20015;-77
2023/09/15 05:48:56;;;;;;;39.15;21.23;;;;;;;12.45;100.00;101965.97;6061249;19;20410;-74
2023/09/15 05:51:09;;;;;;;41.80;21.83;;;;;;;12.42;100.00;101961.66;6059065;19;20075;-74
2023/09/15 05:53:19;;;;;;;39.38;20.48;;;;;;;12.46;100.00;101962.44;6059036;19;20017;-74
2023/09/15 05:55:39;;;;;;;40.80;21.13;;;;;;;12.54;100.00;101960.44;6051927;19;20384;-75
2023/09/15 05:57:52;;;;;;;;;;;;;;;12.61;100.00;101961.09;6065695;19;20069;-74
2023/09/15 06:00:00;;;;;;;40.10;20.02;;;;;;;12.65;100.00;101960.97;6068431;19;20342;-73
2023/09/15 06:02:07;;;;;;;40.75;22.13;;;;;;;12.68;100.00;101968.78;6067829;19;20524;-73
2023/09/15 06:04:12;;;;;;;40.92;21.35;;;;;;;12.74;100.00;101973.88;6070987;19;20473;-73
2023/09/15 06:06:21;;;;;;;40.78;20.70;;;;;;;12.86;100.00;101963.84;6069221;19;20014;-75
2023/09/15 06:08:28;;;;;;;40.65;21.80;;;;;;;12.85;100.00;101962.97;6030344;19;20018;-76
2023/09/15 06:10:49;;;;;;;39.88;20.13;;;;;;;12.96;100.00;101970.53;6036612;19;20336;-74
2023/09/15 06:13:01;;;;;;;37.42;20.20;;;;;;;12.91;100.00;101969.84;6043266;19;20498;-74
2023/09/15 06:15:16;;;;;;;34.95;20.58;;;;;;;12.86;100.00;101964.69;6068964;19;20516;-74
2023/09/15 06:17:35;;;;;;;39.50;20.75;;;;;;;12.80;100.00;101970.19;6064049;19;20011;-75
2023/09/15 06:20:05;;;;;;;35.92;19.73;;;;;;;12.85;100.00;101965.63;6038784;19;20223;-74
2023/09/15 06:22:24;;;;;;;38.08;20.00;;;;;;;12.92;100.00;101968.91;6072759;19;20637;-76
2023/09/15 06:24:43;;;;;;;36.78;18.17;;;;;;;12.95;100.00;101969.69;6065070;19;20010;-75
2023/09/15 06:26:55;;;;;;;37.08;19.63;;;;;;;12.96;100.00;101971.41;6049471;19;20015;-76
2023/09/15 06:29:09;;;;;;;36.25;19.70;;;;;;;12.96;100.00;101965.28;6018506;19;20825;-76
2023/09/15 06:31:22;;;;;;;39.53;18.85;;;;;;;12.99;100.00;101972.22;6037523;19;20011;-76
2023/09/15 06:33:46;;;;;;;34.05;19.63;;;;;;;13.06;100.00;101971.97;6004350;19;20264;-75
2023/09/15 06:35:56;;;;;;;39.95;19.65;;;;;;;13.16;100.00;101969.88;6060135;19;20351;-75
2023/09/15 06:38:14;;;;;;;35.45;19.08;;;;;;;13.21;100.00;101961.81;6051348;19;20018;-76
2023/09/15 06:41:13;;;;;;;36.40;18.15;;;;;;;13.24;100.00;101953.78;6055398;19;20146;-77
2023/09/15 06:43:24;;;;;;;32.08;17.52;;;;;;;13.33;100.00;101958.81;6007192;19;20322;-76
2023/09/15 06:45:31;;;;;;;37.63;18.38;;;;;;;13.36;100.00;101961.34;6069998;19;20849;-77
2023/09/15 06:47:36;;;;;;;34.22;19.73;;;;;;;13.45;100.00;101955.72;6073860;19;20268;-75
2023/09/15 06:49:43;;;;;;;37.67;19.10;;;;;;;13.52;100.00;101951.09;6064458;19;20555;-76
2023/09/15 06:51:52;;;;;;;34.60;18.58;;;;;;;13.60;100.00;101954.34;6067778;19;20516;-75
2023/09/15 06:54:04;;;;;;;32.65;18.45;;;;;;;13.72;100.00;101953.06;6061300;19;20031;-76
2023/09/15 06:56:11;;;;;;;31.90;17.52;;;;;;;13.88;100.00;101954.22;6068240;19;20578;-75
2023/09/15 06:58:26;;;;;;;31.50;17.27;;;;;;;14.05;100.00;101951.78;6069193;19;20015;-76
2023/09/15 07:00:32;;;;;;;30.13;18.58;;;;;;;14.21;100.00;101951.22;6063904;19;20016;-76
2023/09/15 07:02:44;;;;;;;31.17;17.83;;;;;;;14.36;100.00;101949.78;6065823;19;20102;-75
2023/09/15 07:04:49;;;;;;;31.75;17.65;;;;;;;14.54;100.00;101949.09;6072008;19;20015;-75
2023/09/15 07:06:57;;;;;;;29.58;16.98;;;;;;;14.69;100.00;101948.50;6055124;19;20020;-76
2023/09/15 07:09:02;;;;;;;27.95;17.42;;;;;;;14.87;100.00;101944.22;6057453;19;20146;-75
2023/09/15 07:11:11;;;;;;;28.15;16.75;;;;;;;15.09;100.00;101952.16;6062166;19;20425;-76
2023/09/15 07:13:18;;;;;;;30.67;18.15;;;;;;;15.16;100.00;101952.75;6064019;19;20007;-76
2023/09/15 07:15:32;;;;;;;25.73;15.85;;;;;;;15.36;98.54;101957.22;6068333;19;20006;-76
2023/09/15 07:17:38;;;;;;;28.00;16.48;;;;;;;15.51;98.03;101961.00;6068015;19;20002;-75
2023/09/15 07:19:48;;;;;;;26.60;15.88;;;;;;;15.70;96.51;101956.63;6069420;19;20046;-75
2023/09/15 07:21:54;;;;;;;26.70;15.02;;;;;;;15.83;95.98;101954.31;6071644;19;20515;-74
2023/09/15 07:24:01;;;;;;;27.98;15.40;;;;;;;16.11;94.86;101955.69;6074459;19;20088;-77
2023/09/15 07:26:06;;;;;;;27.35;15.32;;;;;;;16.07;93.82;101951.47;6073617;19;20177;-76
2023/09/15 07:28:11;;;;;;;26.33;14.88;;;;;;;16.26;92.86;101944.38;6084704;19;20592;-76
2023/09/15 07:30:17;;;;;;;23.35;14.95;;;;;;;16.43;92.04;101941.81;6074422;19;20045;-76
2023/09/15 07:32:25;;;;;;;27.75;14.82;;;;;;;16.51;91.08;101933.50;6072701;19;20022;-76
2023/09/15 07:34:32;;;;;;;25.00;15.20;;;;;;;16.62;91.13;101939.13;6067031;19;20934;-75
2023/09/15 07:36:38;;;;;;;26.77;15.50;;;;;;;16.71;90.07;101936.97;6071539;19;20517;-76
2023/09/15 07:38:43;;;;;;;22.77;13.98;;;;;;;16.81;89.37;101939.13;6077229;19;20638;-77
2023/09/15 07:40:48;;;;;;;26.67;15.25;;;;;;;16.83;88.77;101939.06;6072030;19;20801;-77
2023/09/15 07:42:56;;;;;;;25.15;14.88;;;;;;;17.09;87.57;101935.97;6072594;19;20368;-77
2023/09/15 07:45:02;;;;;;;24.33;13.48;;;;;;;17.16;87.36;101932.97;6067491;19;20373;-77
2023/09/15 07:47:12;;;;;;;22.02;13.57;;;;;;;17.15;86.45;101933.94;6077797;19;20006;-77
2023/09/15 07:49:18;;;;;;;27.15;14.63;;;;;;;17.26;86.97;101921.81;6074200;19;20014;-78
2023/09/15 07:51:29;;;;;;;21.58;13.75;;;;;;;17.32;85.83;101928.59;6068321;19;20017;-77
2023/09/15 07:53:34;;;;;;;20.77;12.63;;;;;;;17.61;84.96;101920.91;6060095;19;20032;-78
2023/09/15 07:55:39;;;;;;;23.27;12.75;;;;;;;17.57;84.65;101922.88;6065401;19;20073;-79
2023/09/15 07:57:47;;;;;;;21.80;13.18;;;;;;;17.73;84.07;101928.25;6072362;19;20097;-77
2023/09/15 07:59:52;;;;;;;23.60;12.95;;;;;;;17.88;83.37;101926.59;6068836;19;20509;-75
2023/09/15 08:02:04;;;;;;;25.05;13.27;;;;;;;17.80;83.71;101923.47;6064426;19;20098;-76
2023/09/15 08:04:09;;;;;;;25.55;14.13;;;;;;;18.19;82.41;101923.09;6069558;19;20335;-75
2023/09/15 08:06:17;;;;;;;20.67;13.23;;;;;;;18.25;82.06;101925.44;6065803;19;20535;-75
2023/09/15 08:08:22;;;;;;;22.45;13.27;;;;;;;18.06;81.87;101925.63;6074768;19;20011;-75
2023/09/15 08:10:29;;;;;;;22.15;12.57;;;;;;;17.52;83.02;101920.47;6073495;19;20017;-75
2023/09/15 08:12:34;;;;;;;19.67;12.05;;;;;;;18.03;82.50;101919.56;6076342;19;20011;-76
2023/09/15 08:14:43;;;;;;;19.55;11.80;;;;;;;18.22;81.68;101920.31;6075569;19;20007;-76
2023/09/15 08:16:48;;;;;;;20.42;11.80;;;;;;;18.42;80.07;101914.69;6077753;19;20002;-76
2023/09/15 08:18:54;;;;;;;19.60;11.38;;;;;;;18.53;78.94;101923.88;6072427;19;20188;-76
2023/09/15 08:20:59;;;;;;;22.48;11.63;;;;;;;18.85;78.05;101922.06;6078300;19;20014;-75
2023/09/15 08:23:07;;;;;;;24.75;12.10;;;;;;;19.04;76.93;101916.53;6072488;19;20089;-77
2023/09/15 08:25:10;;;;;;;22.77;13.00;;;;;;;18.98;78.27;101919.53;6069931;19;20094;-76
2023/09/15 08:27:16;;;;;;;19.88;11.27;;;;;;;19.23;76.69;101914.47;6070984;19;20017;-76
2023/09/15 08:29:22;;;;;;;19.75;9.65;;;;;;;19.28;75.37;101917.72;6075314;19;20855;-77
2023/09/15 08:31:30;;;;;;;17.08;10.90;;;;;;;19.33;75.41;101922.78;6069413;19;20479;-75
2023/09/15 08:33:35;;;;;;;17.23;10.77;;;;;;;19.28;74.15;101923.06;6065366;19;20067;-76
2023/09/15 08:35:44;;;;;;;20.52;10.15;;;;;;;19.57;75.77;101925.78;6075234;19;20531;-76
2023/09/15 08:37:49;;;;;;;20.58;10.63;;;;;;;19.72;73.84;101924.00;6075458;19;20020;-75
2023/09/15 08:40:00;;;;;;;17.00;10.65;;;;;;;19.94;73.37;101915.53;6063447;19;20693;-76
2023/09/15 08:42:11;;;;;;;17.98;9.98;;;;;;;19.61;73.17;101915.78;6064958;19;20022;-76
2023/09/15 08:44:20;;;;;;;18.67;10.15;;;;;;;19.86;72.65;101907.16;6061376;19;20020;-74
2023/09/15 08:46:25;;;;;;;16.30;9.77;;;;;;;20.14;71.98;101922.25;6062678;19;20156;-74
2023/09/15 08:48:34;;;;;;;17.58;9.60;;;;;;;20.36;71.05;101913.75;6065897;19;20373;-75
2023/09/15 08:50:41;;;;;;;17.85;8.63;;;;;;;20.30;69.22;101915.00;6066796;19;20047;-74
2023/09/15 08:52:47;;;;;;;16.70;9.27;;;;;;;20.42;68.44;101921.34;6062401;19;20164;-75
2023/09/15 08:54:59;;;;;;;16.50;9.43;;;;;;;20.34;68.89;101912.97;6074634;19;20014;-76
2023/09/15 08:57:04;;;;;;;14.75;9.18;;;;;;;20.35;69.36;101907.56;6080200;19;20010;-75
2023/09/15 08:59:10;;;;;;;16.63;9.77;;;;;;;20.61;68.61;101905.00;6072344;19;20450;-75
2023/09/15 09:01:18;;;;;;;19.08;9.23;;;;;;;20.79;68.07;101908.28;6069818;19;20578;-75
2023/09/15 09:03:24;;;;;;;19.40;9.85;;;;;;;20.81;68.10;101911.72;6074190;19;20443;-75
2023/09/15 09:05:30;;;;;;;14.43;7.60;;;;;;;21.08;67.67;101908.97;6071471;19;20006;-75
2023/09/15 09:07:36;;;;;;;19.95;9.25;;;;;;;21.10;66.17;101906.22;6068044;19;20724;-77
2023/09/15 09:09:43;;;;;;;16.90;9.25;;;;;;;21.28;66.51;101904.97;6075411;19;20015;-76
2023/09/15 09:11:51;;;;;;;15.20;9.73;;;;;;;21.08;65.60;101897.44;6070378;19;20042;-76
2023/09/15 09:13:59;;;;;;;19.27;9.40;;;;;;;21.15;66.67;101888.91;6069696;19;20526;-75
2023/09/15 09:16:05;;;;;;;16.77;9.77;;;;;;;21.13;67.02;101890.81;6071056;19;20595;-74
2023/09/15 09:18:16;;;;;;;16.73;9.90;;;;;;;21.08;65.47;101886.75;6076749;19;20468;-74
2023/09/15 09:20:31;;;;;;;17.92;10.13;;;;;;;21.07;66.79;101893.94;6071284;19;20368;-75
2023/09/15 09:22:36;;;;;;;18.85;9.93;;;;;;;21.11;66.17;101891.88;6069828;19;20018;-75
2023/09/15 09:24:41;;;;;;;17.30;9.82;;;;;;;21.41;65.44;101884.47;6065238;19;20364;-75
2023/09/15 09:26:58;;;;;;;18.92;10.90;;;;;;;21.25;65.44;101883.78;6071152;19;20006;-75
2023/09/15 09:29:03;;;;;;;17.05;10.32;;;;;;;21.47;64.36;101886.69;6071354;19;20018;-75
2023/09/15 09:31:13;;;;;;;19.83;9.80;;;;;;;21.58;65.00;101885.94;6071488;19;20018;-75
2023/09/15 09:33:22;;;;;;;16.95;9.43;;;;;;;21.83;62.33;101873.53;6065470;19;20023;-74
2023/09/15 09:35:28;;;;;;;15.85;8.27;;;;;;;21.84;62.41;101878.75;6062883;19;20507;-74
2023/09/15 09:37:34;;;;;;;17.73;9.27;;;;;;;22.12;62.75;101884.78;6056927;19;20448;-74
2023/09/15 09:39:39;;;;;;;19.20;10.75;;;;;;;21.94;61.61;101880.78;6077191;19;20035;-74
2023/09/15 09:41:46;;;;;;;17.05;9.23;;;;;;;21.75;61.11;101863.38;6064515;19;20011;-76
2023/09/15 09:43:56;;;;;;;18.33;10.90;;;;;;;21.83;61.78;101870.84;6054471;19;20451;-75